ペトロパブロフスク・カムチャツキー の空港の天気 - METARとTAF

ペトロパブロフスク・カムチャツキー空港 ( UHPP / PKC ) - ロシア ペトロパブロフスク・カムチャツキー
飛行場実況気象(Metar)
観測時間07/29 14:30 MAGT (07/29 03:30 UTC)
風向・風速南 5m/s
視程10km以上
天気現象
少しの雲 雲底高度 1520m
気温20℃
湿度73%
気圧1006hPa
METARUHPP 290330Z 18005MPS 9999 FEW050 20/15 Q1006 R34L/CLRD70 NOSIG RMK MT OBSC QFE751/1001
過去の天気等 Google飛行場航空写真 Wunderground天気予報

過去48時間のMETAR

飛行場予報(TAF)
発表時間: 7/29 12:33 MAGT (7/29 01:33 UTC)
予報対象時間: 29日14時 MAGT ~ 30日20時 MAGT
風向・風速南 3m/s 瞬間風速 12m/s
視程10km以上
全天の4割程度の雲 雲底高度 1220m
29日14時 MAGT ~ 30日20時 MAGT に一時的に
視程1000m
天気現象しゅう雨 もや
全天の8割程度の雲 雲底高度 120m
全天を覆う積乱雲 雲底高度 300m
TAF UHPP 290133Z 2903/3009 18003G12MPS 9999 SCT040
TEMPO 2903/3009 1000 SHRA BR BKN004 OVC010CB